createdAt,value
2022-10-06T00:00:30.879Z,42.4
2022-10-06T00:30:32.639Z,42.9
2022-10-06T01:01:34.662Z,42.4
2022-10-06T01:31:36.634Z,41.9
2022-10-06T02:01:38.431Z,41.9
2022-10-06T02:34:40.454Z,42.4
2022-10-06T03:09:42.592Z,42.4
2022-10-06T03:39:44.584Z,43.5
2022-10-06T04:13:46.633Z,41.3
2022-10-06T04:45:48.633Z,41.3
2022-10-06T05:17:50.699Z,41.3
2022-10-06T05:51:52.934Z,42.4
2022-10-06T06:22:54.847Z,45.1
2022-10-06T06:52:56.727Z,45.6
2022-10-06T07:22:58.744Z,48.3
2022-10-06T08:02:01.174Z,48.9
2022-10-06T08:32:03.075Z,49.9
2022-10-06T09:04:05.169Z,51
2022-10-06T09:34:07.042Z,52.6
2022-10-06T10:04:09.098Z,53.2
2022-10-06T10:35:11.027Z,55.3
2022-10-06T11:05:12.883Z,56.4
2022-10-06T11:36:14.852Z,59.6
2022-10-06T12:07:16.746Z,57.5
2022-10-06T12:19:17.514Z,57.5
2022-10-06T12:50:19.455Z,57.5
2022-10-06T13:22:21.530Z,61.8
2022-10-06T13:52:23.472Z,60.1
2022-10-06T14:22:25.343Z,57.5
2022-10-06T14:52:27.212Z,56.9
2022-10-06T15:22:29.063Z,54.8
2022-10-06T15:30:29.635Z,54.2
2022-10-06T16:01:31.823Z,52.1
2022-10-06T16:34:33.592Z,51
2022-10-06T17:06:35.682Z,49.9
2022-10-06T17:36:37.555Z,49.4
2022-10-06T18:06:39.504Z,49.4
2022-10-06T18:36:41.000Z,48.9
2022-10-06T19:07:43.464Z,49.4
2022-10-06T19:37:45.362Z,48.3
2022-10-06T20:07:47.312Z,48.9
2022-10-06T20:37:49.261Z,48.3
2022-10-06T21:10:51.312Z,48.9
2022-10-06T21:42:53.225Z,47.8
2022-10-06T22:12:55.174Z,48.3
2022-10-06T22:42:57.080Z,48.9
2022-10-06T23:18:59.360Z,49.4
2022-10-06T23:49:01.385Z,48.3
